Flight Track Log - Related Links

Times and Time Zones

All times are in EDT time to prevent confusion due to time zone crossing. See the XOJ552 flight status page for this flight to view local times or setup timezone preferences in your user account.

Time Position Orientation Groundspeed Altitude Reporting Facility
EDT Latitude Longitude Course Direction KTS MPH feet Rate Location/Type
Mon 10:04:49 PM 36.6000 -121.8833 28° Northeast 172 198 1,800  Level Northern Cal TRACON
Mon 10:05:49 PM 36.6500 -121.8500 28° Northeast 229 264 4,700 2,639 Climbing Northern Cal TRACON
Mon 10:08:00 PM 36.6594 -121.6594 86° East 277 319 10,200 2,438 Climbing Oakland Center
Mon 10:09:01 PM 36.6653 -121.5561 86° East 289 333 12,500 2,213 Climbing Oakland Center
Mon 10:10:02 PM 36.6742 -121.4383 85° East 318 366 14,700 2,146 Climbing Oakland Center
Mon 10:11:04 PM 36.6825 -121.3125 85° East 347 399 16,900 2,244 Climbing Oakland Center
Mon 10:12:05 PM 36.6917 -121.1833 85° East 365 420 19,300 2,213 Climbing Oakland Center
Mon 10:13:06 PM 36.7000 -121.0542 85° East 371 427 21,400 1,721 Climbing Oakland Center
Mon 10:14:07 PM 36.7078 -120.9242 86° East 374 430 22,800 1,131 Climbing Oakland Center
Mon 10:15:08 PM 36.7344 -120.7908 76° East 403 464 23,700 1,328 Climbing Oakland Center
Mon 10:16:09 PM 36.7811 -120.6578 66° East 421 484 25,500 1,918 Climbing Oakland Center
Mon 10:17:10 PM 36.8336 -120.5033 67° East 423 487 27,600 1,770 Climbing Oakland Center
Mon 10:18:11 PM 36.8819 -120.3689 66° East 425 489 29,100 1,328 Climbing Oakland Center
Mon 10:19:12 PM 36.9311 -120.2294 66° East 435 501 30,300 1,180 Climbing Oakland Center
Mon 10:20:13 PM 36.9844 -120.0750 67° East 446 513 31,500 1,230 Climbing Oakland Center
Mon 10:21:14 PM 37.0353 -119.9289 66° East 456 525 32,800 1,180 Climbing Oakland Center
Mon 10:22:15 PM 37.0861 -119.7814 67° East 461 531 33,900 1,180 Climbing Oakland Center
Mon 10:23:16 PM 37.1369 -119.6350 66° East 459 528 35,200 1,220 Climbing Oakland Center
Mon 10:24:18 PM 37.1881 -119.4864 67° East 463 533 36,400 1,463 Climbing Oakland Center
Mon 10:25:19 PM 37.2364 -119.3467 66° East 444 511 38,200 1,574 Climbing Oakland Center
Mon 10:26:20 PM 37.2825 -119.2086 67° East 430 495 39,600 1,033 Climbing Oakland Center
Mon 10:27:21 PM 37.3289 -119.0719 67° East 426 490 40,300 590 Climbing Oakland Center
Mon 10:28:22 PM 37.3744 -118.9342 67° East 428 493 40,800 344 Climbing Oakland Center
Mon 10:29:23 PM 37.4308 -118.7692 67° East 434 499 41,000 98 Climbing Oakland Center
Mon 10:30:25 PM 37.4783 -118.6247 67° East 447 514 41,000  Level Oakland Center
Mon 10:31:26 PM 37.5275 -118.4800 67° East 449 517 41,000  Level Oakland Center
Mon 10:32:27 PM 37.5739 -118.3358 68° East 447 514 41,000  Level Oakland Center
Mon 10:33:28 PM 37.6211 -118.1931 67° East 444 511 41,000  Level Oakland Center
Mon 10:34:29 PM 37.6681 -118.0489 68° East 443 510 41,000  Level Oakland Center
Mon 10:35:30 PM 37.7161 -117.9028 67° East 449 517 41,000  Level Oakland Center
Mon 10:36:31 PM 37.7633 -117.7558 68° East 453 521 41,000  Level Oakland Center
Mon 10:37:32 PM 37.8111 -117.6094 68° East 453 521 41,000  Level Oakland Center
Mon 10:38:34 PM 37.8569 -117.4628 68° East 450 518 41,000  Level Oakland Center
Mon 10:39:35 PM 37.9117 -117.2889 68° East 448 516 41,000  Level Oakland Center
Mon 10:40:36 PM 37.9567 -117.1444 68° East 448 516 41,000  Level Oakland Center
Mon 10:41:37 PM 38.0025 -116.9992 68° East 453 521 41,000  Level Oakland Center
Mon 10:42:38 PM 38.0478 -116.8539 68° East 450 518 41,000  Level Oakland Center
Mon 10:43:39 PM 38.0931 -116.7097 68° East 444 511 41,000  Level Oakland Center
Mon 10:44:10 PM 38.1200 -116.6231 68° East 443 510 41,000  Level Salt Lake Center
Mon 10:44:41 PM 38.1381 -116.5658 68° East 442 509 41,000  Level Oakland Center
Mon 10:45:11 PM 38.1653 -116.4778 69° East 444 511 41,000  Level Salt Lake Center
Mon 10:46:15 PM 38.2092 -116.3336 69° East 441 507 41,000  Level Salt Lake Center
Mon 10:47:15 PM 38.2539 -116.1881 69° East 442 509 41,000  Level Salt Lake Center
Mon 10:48:16 PM 38.3000 -116.0403 68° East 448 516 41,000  Level Salt Lake Center
Mon 10:49:18 PM 38.3444 -115.8925 69° East 447 514 41,000  Level Salt Lake Center
Mon 10:50:19 PM 38.3978 -115.7136 69° East 451 519 41,000  Level Salt Lake Center
Mon 10:51:21 PM 38.4431 -115.5628 69° East 455 524 41,000  Level Salt Lake Center
Mon 10:52:22 PM 38.4872 -115.4150 69° East 449 517 41,000  Level Salt Lake Center
Mon 10:53:24 PM 38.5294 -115.2700 70° East 457 526 41,000  Level Salt Lake Center
Mon 10:54:25 PM 38.5742 -115.1189 69° East 456 525 41,000  Level Salt Lake Center
Mon 10:55:27 PM 38.6164 -114.9731 70° East 443 510 41,000  Level Salt Lake Center
Mon 10:56:28 PM 38.6672 -114.7992 69° East 436 502 41,000  Level Salt Lake Center
Mon 10:57:30 PM 38.7092 -114.6547 70° East 434 499 41,000  Level Salt Lake Center
Mon 10:58:31 PM 38.7508 -114.5083 70° East 435 501 41,000  Level Salt Lake Center
Mon 10:59:33 PM 38.7936 -114.3614 69° East 439 505 41,000  Level Salt Lake Center
Mon 11:00:34 PM 38.8350 -114.2133 70° East 441 507 41,000  Level Salt Lake Center
Mon 11:01:35 PM 38.8772 -114.0644 70° East 443 510 41,000  Level Salt Lake Center
Mon 11:02:37 PM 38.9194 -113.9150 70° East 445 512 41,000  Level Salt Lake Center
Mon 11:03:38 PM 38.9606 -113.7650 71° East 445 512 41,000  Level Salt Lake Center
Mon 11:04:40 PM 39.0022 -113.6144 70° East 447 514 41,000  Level Salt Lake Center
Mon 11:05:41 PM 39.0444 -113.4644 70° East 446 513 41,000  Level Salt Lake Center
Mon 11:06:42 PM 39.0933 -113.2831 71° East 446 513 41,000  Level Salt Lake Center
Mon 11:07:44 PM 39.1350 -113.1311 70° East 447 514 41,000  Level Salt Lake Center
Mon 11:08:45 PM 39.1761 -112.9808 71° East 447 514 41,000  Level Salt Lake Center
Mon 11:09:46 PM 39.2172 -112.8303 71° East 445 512 41,000  Level Salt Lake Center
Mon 11:10:48 PM 39.2567 -112.6786 71° East 445 512 41,000  Level Salt Lake Center
Mon 11:11:49 PM 39.2975 -112.5275 71° East 446 513 41,000  Level Salt Lake Center
Mon 11:12:50 PM 39.3300 -112.3753 75° East 444 511 41,000  Level Salt Lake Center
Mon 11:13:52 PM 39.3556 -112.2178 78° East 447 514 41,000  Level Salt Lake Center
Mon 11:14:53 PM 39.3850 -112.0625 76° East 448 516 41,000  Level Salt Lake Center
Mon 11:15:54 PM 39.4139 -111.9075 76° East 446 513 41,000  Level Salt Lake Center
Mon 11:16:55 PM 39.4467 -111.7197 77° East 449 517 41,000  Level Salt Lake Center
Mon 11:17:57 PM 39.4772 -111.5642 76° East 448 516 41,000  Level Salt Lake Center
Mon 11:18:58 PM 39.5050 -111.4067 77° East 449 517 41,000  Level Salt Lake Center
Mon 11:19:59 PM 39.5322 -111.2503 77° East 451 519 41,000  Level Salt Lake Center
Mon 11:21:00 PM 39.5603 -111.1003 76° East 448 516 41,000  Level Salt Lake Center
Mon 11:22:01 PM 39.5903 -110.9231 78° East 450 518 41,000  Level Salt Lake Center
Mon 11:23:03 PM 39.6158 -110.7711 78° East 450 518 41,000  Level Salt Lake Center
Mon 11:24:04 PM 39.6464 -110.5936 77° East 452 520 41,000  Level Salt Lake Center
Mon 11:25:05 PM 39.6717 -110.4406 78° East 452 520 41,000  Level Salt Lake Center
Mon 11:26:06 PM 39.6983 -110.2878 77° East 454 522 41,000  Level Salt Lake Center
Mon 11:27:07 PM 39.7275 -110.1097 78° East 452 520 41,000  Level Salt Lake Center
Mon 11:28:09 PM 39.7528 -109.9558 78° East 455 524 41,000  Level Salt Lake Center
Mon 11:29:21 PM 39.7858 -109.7489 78° East 456 525 41,000  Level Denver Center
Mon 11:30:22 PM 39.8117 -109.5944 78° East 455 524 41,000  Level Denver Center
Mon 11:31:12 PM 39.8322 -109.4661 78° East 457 526 41,000  Level Salt Lake Center
Mon 11:32:13 PM 39.8614 -109.2842 78° East 459 528 41,000  Level Salt Lake Center
Mon 11:33:14 PM 39.8858 -109.1272 78° East 460 529 41,000  Level Salt Lake Center
Mon 11:34:15 PM 39.9108 -108.9711 78° East 459 528 41,000  Level Salt Lake Center
Mon 11:35:17 PM 39.9389 -108.7869 79° East 459 528 41,000  Level Salt Lake Center
Mon 11:36:18 PM 39.9642 -108.6289 78° East 460 529 41,000  Level Salt Lake Center
Mon 11:37:19 PM 39.9875 -108.4728 79° East 458 527 41,000  Level Salt Lake Center
Mon 11:38:20 PM 40.0122 -108.3161 78° East 459 528 41,000  Level Salt Lake Center
Mon 11:39:21 PM 40.0386 -108.1339 79° East 457 526 41,000  Level Salt Lake Center
Mon 11:40:22 PM 40.0617 -107.9778 79° East 457 526 41,000  Level Salt Lake Center
Mon 11:41:49 PM 40.1089 -107.7475 75° East 455 524 41,000  Level Denver Center
Mon 11:42:50 PM 40.1492 -107.5722 73° East 452 520 41,000 293 Level Denver Center
Mon 11:43:52 PM 40.1833 -107.4214 73° East 454 522 41,600 585 Climbing Denver Center
Mon 11:44:53 PM 40.2183 -107.2711 73° East 451 519 42,200 689 Climbing Denver Center
Mon 11:45:54 PM 40.2564 -107.0989 74° East 444 511 43,000 732 Climbing Denver Center
Mon 11:46:56 PM 40.2889 -106.9536 74° East 437 503 43,700 683 Climbing Denver Center
Mon 11:47:57 PM 40.3225 -106.8053 73° East 428 493 44,400 639 Climbing Denver Center
Mon 11:48:58 PM 40.3569 -106.6594 73° East 421 484 45,000 295 Climbing Denver Center
Mon 11:49:59 PM 40.3881 -106.5131 74° East 415 478 45,000  Level Denver Center
Mon 11:51:00 PM 40.4247 -106.3422 74° East 425 489 45,000  Level Denver Center
Mon 11:52:01 PM 40.4561 -106.1975 74° East 431 496 45,000  Level Denver Center
Mon 11:53:03 PM 40.4864 -106.0561 74° East 435 501 45,000  Level Denver Center
Mon 11:54:04 PM 40.5264 -105.8697 74° East 440 506 45,000  Level Denver Center
Mon 11:55:05 PM 40.5578 -105.7144 75° East 440 506 45,000  Level Denver Center
Mon 11:56:06 PM 40.5908 -105.5558 75° East 445 512 45,000  Level Denver Center
Mon 11:57:07 PM 40.6239 -105.4011 74° East 443 510 45,000  Level Denver Center
Mon 11:58:08 PM 40.6556 -105.2450 75° East 440 506 45,000  Level Denver Center
Mon 11:59:09 PM 40.6883 -105.0883 75° East 443 510 45,000  Level Denver Center
Tue 12:00:11 AM 40.7203 -104.9308 75° East 444 511 45,000  Level Denver Center
Tue 12:01:13 AM 40.7511 -104.7747 75° East 442 509 45,000  Level Denver Center
Tue 12:02:14 AM 40.7828 -104.6186 75° East 440 506 45,000  Level Denver Center
Tue 12:03:15 AM 40.8133 -104.4628 75° East 437 503 45,000  Level Denver Center
Tue 12:04:16 AM 40.8450 -104.3058 75° East 440 506 45,000  Level Denver Center
Tue 12:05:17 AM 40.8758 -104.1481 75° East 443 510 45,000  Level Denver Center
Tue 12:06:18 AM 40.9119 -103.9597 76° East 442 509 45,000  Level Denver Center
Tue 12:07:19 AM 40.9411 -103.8039 76° East 438 504 45,000  Level Denver Center
Tue 12:08:20 AM 40.9722 -103.6494 75° East 434 499 45,000  Level Denver Center
Tue 12:09:21 AM 40.9994 -103.5064 76° East 440 506 45,000  Level Denver Center
Tue 12:10:22 AM 41.0322 -103.3275 76° East 448 516 45,000  Level Denver Center
Tue 12:11:23 AM 41.0608 -103.1736 76° East 450 518 45,000  Level Denver Center
Tue 12:12:24 AM 41.0933 -102.9936 76° East 451 519 45,000  Level Denver Center
Tue 12:13:25 AM 41.1072 -102.8442 83° East 455 524 45,000  Level Denver Center
Tue 12:14:26 AM 41.1217 -102.6578 84° East 456 525 45,000  Level Denver Center
Tue 12:15:28 AM 41.1339 -102.4961 84° East 459 528 45,000  Level Denver Center
Tue 12:16:29 AM 41.1469 -102.3336 84° East 462 532 45,000  Level Denver Center
Tue 12:17:30 AM 41.1603 -102.1453 85° East 460 529 45,000  Level Denver Center
Tue 12:18:31 AM 41.1728 -101.9853 84° East 455 524 45,000  Level Denver Center
Tue 12:19:32 AM 41.1842 -101.8239 85° East 457 526 45,000  Level Denver Center
Tue 12:20:33 AM 41.1978 -101.6361 84° East 458 527 45,000  Level Denver Center
Tue 12:21:34 AM 41.2089 -101.4744 85° East 458 527 45,000  Level Denver Center
Tue 12:22:47 AM 41.2197 -101.3144 85° East 454 522 45,000  Level Denver Center
Tue 12:23:48 AM 41.2342 -101.0983 85° East 456 525 45,000  Level Denver Center
Tue 12:24:49 AM 41.2444 -100.9375 85° East 455 524 45,000  Level Denver Center
Tue 12:25:50 AM 41.2561 -100.7503 85° East 452 520 45,000  Level Denver Center
Tue 12:26:51 AM 41.2664 -100.5914 85° East 449 517 45,000  Level Denver Center
Tue 12:27:52 AM 41.2744 -100.4297 86° East 453 521 45,000  Level Denver Center
Tue 12:28:53 AM 41.2861 -100.2403 85° East 458 527 45,000  Level Denver Center
Tue 12:29:53 AM 41.2958 -100.0767 85° East 461 531 45,000  Level Denver Center
Tue 12:30:54 AM 41.3036 -99.9142 86° East 461 531 45,000  Level Denver Center
Tue 12:31:55 AM 41.3147 -99.7261 85° East 458 527 45,000  Level Denver Center
Tue 12:32:56 AM 41.3219 -99.5656 87° East 455 524 45,000  Level Denver Center
Tue 12:33:57 AM 41.3300 -99.4044 86° East 453 521 45,000  Level Denver Center
Tue 12:34:58 AM 41.3383 -99.2369 86° East 453 521 45,000  Level Denver Center
Tue 12:35:59 AM 41.3467 -99.0683 86° East 454 522 45,000  Level Denver Center
Tue 12:36:59 AM 41.3544 -98.8992 86° East 452 520 45,000  Level Denver Center
Tue 12:38:00 AM 41.3631 -98.7278 86° East 455 524 45,000  Level Denver Center
Tue 12:39:01 AM 41.3692 -98.5572 87° East 456 525 45,000  Level Denver Center
Tue 12:40:02 AM 41.3753 -98.3875 87° East 456 525 45,000  Level Denver Center
Tue 12:41:12 AM 41.3825 -98.1861 87° East 454 522 45,000  Level Minneapolis Center
Tue 12:42:12 AM 41.3869 -98.0294 88° East 454 522 45,000  Level Minneapolis Center
Tue 12:43:13 AM 41.3925 -97.8603 87° East 456 525 45,000  Level Minneapolis Center
Tue 12:44:14 AM 41.3972 -97.6903 88° East 459 528 45,000  Level Minneapolis Center
Tue 12:45:14 AM 41.4014 -97.5181 88° East 463 533 45,000  Level Minneapolis Center
Tue 12:46:15 AM 41.4056 -97.3478 88° East 462 532 45,000  Level Minneapolis Center
Tue 12:47:15 AM 41.4097 -97.1761 88° East 462 532 45,000  Level Minneapolis Center
Tue 12:48:15 AM 41.4133 -97.0061 88° East 461 531 45,000  Level Minneapolis Center
Tue 12:49:16 AM 41.4172 -96.8350 88° East 461 531 45,000  Level Minneapolis Center
Tue 12:50:16 AM 41.4208 -96.6656 88° East 459 528 45,000  Level Minneapolis Center
Tue 12:51:17 AM 41.4250 -96.4628 88° East 456 525 45,000  Level Minneapolis Center
Tue 12:52:17 AM 41.4264 -96.3114 89° East 461 531 45,000  Level Minneapolis Center
Tue 12:53:18 AM 41.4289 -96.1389 89° East 464 534 45,000  Level Minneapolis Center
Tue 12:54:18 AM 41.4306 -95.9669 89° East 463 533 45,000  Level Minneapolis Center
Tue 12:55:19 AM 41.4317 -95.7956 89° East 464 534 45,000  Level Minneapolis Center
Tue 12:56:19 AM 41.4356 -95.6239 88° East 463 533 45,000  Level Minneapolis Center
Tue 12:57:20 AM 41.4358 -95.4497 90° East 466 536 45,000  Level Minneapolis Center
Tue 12:58:20 AM 41.4378 -95.2808 89° East 462 532 45,000  Level Minneapolis Center
Tue 12:59:20 AM 41.4392 -95.1106 89° East 461 531 45,000  Level Minneapolis Center
Tue 01:00:21 AM 41.4400 -94.9414 90° East 459 528 45,000  Level Minneapolis Center
Tue 01:01:21 AM 41.4397 -94.7708 90° East 460 529 45,000  Level Minneapolis Center
Tue 01:02:22 AM 41.4400 -94.5997 90° East 462 532 45,000  Level Minneapolis Center
Tue 01:03:22 AM 41.4394 -94.4294 90° East 461 531 45,000  Level Minneapolis Center
Tue 01:04:22 AM 41.4394 -94.2572 90° East 464 534 45,000  Level Minneapolis Center
Tue 01:05:23 AM 41.4394 -94.0600 90° East 464 534 45,000  Level Minneapolis Center
Tue 01:06:23 AM 41.4375 -93.8883 91° East 465 535 45,000  Level Minneapolis Center
Tue 01:07:24 AM 41.4381 -93.7147 90° East 468 539 45,000  Level Minneapolis Center
Tue 01:08:24 AM 41.4361 -93.5442 91° East 467 537 45,000  Level Minneapolis Center
Tue 01:09:24 AM 41.4344 -93.3703 91° East 470 541 45,000  Level Minneapolis Center
Tue 01:10:25 AM 41.4325 -93.1986 91° East 468 539 45,000  Level Minneapolis Center
Tue 01:11:25 AM 41.4297 -93.0269 91° East 467 537 45,000  Level Minneapolis Center
Tue 01:12:25 AM 41.4267 -92.8542 91° East 467 537 45,000  Level Minneapolis Center
Tue 01:13:26 AM 41.4236 -92.6839 91° East 465 535 45,000  Level Minneapolis Center
Tue 01:14:25 AM 41.4194 -92.5103 92° East 468 539 45,000  Level Chicago Center
Tue 01:15:26 AM 41.4164 -92.3322 91° East 462 532 45,000  Level Chicago Center
Tue 01:16:26 AM 41.4128 -92.1614 92° East 465 535 45,000  Level Chicago Center
Tue 01:17:27 AM 41.4078 -91.9911 92° East 467 537 45,000  Level Chicago Center
Tue 01:18:26 AM 41.4039 -91.8228 92° East 463 533 45,000  Level Chicago Center
Tue 01:19:27 AM 41.4000 -91.6564 92° East 458 527 45,000  Level Chicago Center
Tue 01:20:27 AM 41.3947 -91.4875 92° East 461 531 45,000  Level Chicago Center
Tue 01:21:27 AM 41.3892 -91.3128 92° East 456 525 45,000  Level Chicago Center
Tue 01:22:28 AM 41.3839 -91.1439 92° East 455 524 45,000  Level Chicago Center
Tue 01:23:28 AM 41.3783 -90.9764 92° East 455 524 45,000  Level Chicago Center
Tue 01:24:28 AM 41.3731 -90.8056 92° East 459 528 45,000  Level Chicago Center
Tue 01:25:28 AM 41.3667 -90.6353 93° East 459 528 45,000  Level Chicago Center
Tue 01:26:29 AM 41.3592 -90.4683 93° East 454 522 45,000  Level Chicago Center
Tue 01:27:29 AM 41.3525 -90.2964 93° East 461 531 45,000  Level Chicago Center
Tue 01:28:29 AM 41.3469 -90.1244 92° East 463 533 45,000  Level Chicago Center
Tue 01:29:29 AM 41.3392 -89.9533 93° East 461 531 45,000  Level Chicago Center
Tue 01:30:30 AM 41.3319 -89.7797 93° East 466 536 45,000  Level Chicago Center
Tue 01:31:30 AM 41.3250 -89.6075 93° East 465 535 45,000  Level Chicago Center
Tue 01:32:30 AM 41.3161 -89.4336 94° East 468 539 45,000  Level Chicago Center
Tue 01:33:30 AM 41.3086 -89.2597 93° East 469 540 45,000  Level Chicago Center
Tue 01:34:31 AM 41.2981 -89.0758 94° East 473 544 45,000  Level Chicago Center
Tue 01:35:31 AM 41.2894 -88.9028 94° East 474 545 45,000  Level Chicago Center
Tue 01:36:31 AM 41.2803 -88.7306 94° East 474 545 45,000  Level Chicago Center
Tue 01:37:31 AM 41.2706 -88.5572 94° East 478 550 45,000  Level Chicago Center
Tue 01:38:32 AM 41.2606 -88.3875 94° East 470 541 45,000  Level Chicago Center
Tue 01:39:32 AM 41.2506 -88.2186 94° East 468 539 45,000  Level Chicago Center
Tue 01:40:32 AM 41.2417 -88.0508 94° East 466 536 45,000  Level Chicago Center
Tue 01:41:32 AM 41.2303 -87.8825 95° East 468 539 45,000  Level Chicago Center
Tue 01:42:32 AM 41.2211 -87.7128 94° East 468 539 45,000  Level Chicago Center
Tue 01:43:33 AM 41.2108 -87.5442 95° East 463 533 45,000  Level Chicago Center
Tue 01:44:33 AM 41.1997 -87.3764 95° East 461 531 45,000  Level Chicago Center
Tue 01:45:33 AM 41.1883 -87.2069 95° East 464 534 45,000  Level Chicago Center
Tue 01:46:33 AM 41.1733 -87.0022 95° East 467 537 45,000  Level Chicago Center
Tue 01:47:33 AM 41.1633 -86.8311 94° East 469 540 45,000  Level Chicago Center
Tue 01:48:34 AM 41.1519 -86.6856 96° East 468 539 45,000  Level Chicago Center
Tue 01:49:34 AM 41.1397 -86.5144 95° East 470 541 45,000  Level Chicago Center
Tue 01:50:34 AM 41.1267 -86.3419 96° East 472 543 45,000  Level Chicago Center
Tue 01:51:34 AM 41.1150 -86.1714 95° East 469 540 45,000  Level Chicago Center
Tue 01:52:34 AM 41.1008 -86.0017 96° East 467 537 45,000  Level Chicago Center
Tue 01:53:35 AM 41.0881 -85.8306 96° East 470 541 45,000  Level Chicago Center
Tue 01:54:35 AM 41.0714 -85.6278 96° East 468 539 45,000  Level Chicago Center
Tue 01:55:35 AM 41.0567 -85.4583 97° East 467 537 45,000  Level Chicago Center
Tue 01:56:35 AM 41.0425 -85.2850 96° East 477 549 45,000  Level Chicago Center
Tue 01:57:35 AM 41.0275 -85.1122 97° East 482 555 45,000  Level Chicago Center
Tue 01:58:36 AM 41.0139 -84.9428 96° East 471 542 45,000  Level Chicago Center
Tue 01:59:36 AM 40.9986 -84.7731 97° East 467 537 45,000  Level Chicago Center
Tue 02:00:36 AM 40.9836 -84.6022 97° East 469 540 45,000  Level Chicago Center
Tue 02:01:36 AM 40.9686 -84.4314 97° East 471 542 45,000  Level Chicago Center
Tue 02:02:37 AM 40.9522 -84.2592 97° East 472 543 45,000  Level Chicago Center
Tue 02:03:37 AM 40.9361 -84.0878 97° East 473 544 45,000  Level Chicago Center
Tue 02:04:37 AM 40.9200 -83.9161 97° East 472 543 45,000  Level Chicago Center
Tue 02:05:37 AM 40.9036 -83.7458 97° East 470 541 45,000  Level Chicago Center
Tue 02:06:37 AM 40.8875 -83.5761 97° East 468 539 45,000  Level Chicago Center
Tue 02:07:38 AM 40.8689 -83.4061 98° East 469 540 45,000  Level Chicago Center
Tue 02:08:48 AM 40.8519 -83.2075 96° East 466 536 45,000  Level Cleveland Center
Tue 02:09:48 AM 40.8350 -83.0367 97° East 460 529 45,000  Level Cleveland Center
Tue 02:10:48 AM 40.8156 -82.8658 98° East 469 540 45,000  Level Cleveland Center
Tue 02:11:48 AM 40.7919 -82.6783 99° East 469 540 45,000  Level Cleveland Center
Tue 02:12:48 AM 40.7742 -82.5050 98° East 474 545 45,000  Level Cleveland Center
Tue 02:13:48 AM 40.7542 -82.3347 99° East 474 545 45,000  Level Cleveland Center
Tue 02:14:48 AM 40.7336 -82.1586 99° East 474 545 45,000  Level Cleveland Center
Tue 02:15:48 AM 40.7153 -81.9856 98° East 479 551 45,000  Level Cleveland Center
Tue 02:16:48 AM 40.6964 -81.8128 98° East 479 551 45,000  Level Cleveland Center
Tue 02:17:48 AM 40.6772 -81.6372 98° East 479 551 45,000  Level Cleveland Center
Tue 02:18:48 AM 40.6558 -81.4617 99° East 486 559 45,000  Level Cleveland Center
Tue 02:19:48 AM 40.6361 -81.2889 98° East 486 559 45,000  Level Cleveland Center
Tue 02:20:48 AM 40.6142 -81.1136 99° East 486 559 45,000  Level Cleveland Center
Tue 02:21:48 AM 40.6022 -80.9386 95° East 480 552 45,000  Level Cleveland Center
Tue 02:22:48 AM 40.5881 -80.7581 96° East 480 552 45,000  Level Cleveland Center
Tue 02:23:48 AM 40.5758 -80.5831 95° East 480 552 45,000  Level Cleveland Center
Tue 02:24:48 AM 40.5633 -80.4411 97° East 480 552 45,000  Level Cleveland Center
Tue 02:25:48 AM 40.5419 -80.2361 98° East 480 552 45,000  Level Cleveland Center
Tue 02:26:48 AM 40.5267 -80.0586 96° East 485 558 45,000  Level Cleveland Center
Tue 02:27:48 AM 40.5175 -79.8947 94° East 500 575 45,000  Level Cleveland Center
Tue 02:28:48 AM 40.5017 -79.7231 97° East 488 562 45,000  Level Cleveland Center
Tue 02:29:48 AM 40.4856 -79.5375 96° East 473 544 45,000  Level Cleveland Center
Tue 02:30:48 AM 40.4694 -79.3714 97° East 473 544 45,000  Level Cleveland Center
Tue 02:31:48 AM 40.4508 -79.2081 98° East 461 531 45,000  Level Cleveland Center
Tue 02:32:48 AM 40.4364 -79.0528 97° East 461 531 45,000  Level Cleveland Center
Tue 02:33:48 AM 40.4214 -78.8814 97° East 461 531 45,000  Level Cleveland Center
Tue 02:34:48 AM 40.4042 -78.7156 98° East 466 536 45,000  Level Cleveland Center
Tue 02:35:48 AM 40.3889 -78.5467 97° East 466 536 45,000 -306 Level Cleveland Center
Tue 02:38:04 AM 40.3522 -78.1769 97° East 447 514 44,000 -1,206 Descending New York Center
Tue 02:39:02 AM 40.3344 -77.9925 97° East 453 521 41,100 -2,723 Descending New York Center
Tue 02:40:03 AM 40.3178 -77.8219 97° East 459 528 38,600 -2,500 Descending New York Center
Tue 02:41:02 AM 40.3006 -77.6542 98° East 465 535 36,100 -2,430 Descending New York Center
Tue 02:42:04 AM 40.2828 -77.4892 98° East 465 535 33,700 -2,400 Descending New York Center
Tue 02:43:02 AM 40.2631 -77.3239 99° East 465 535 31,300 -2,350 Descending New York Center
Tue 02:44:04 AM 40.2433 -77.1506 98° East 465 535 29,000 -2,311 Descending New York Center
Tue 02:45:04 AM 40.2233 -76.9775 99° East 478 550 26,600 -2,319 Descending New York Center
Tue 02:46:03 AM 40.2050 -76.8072 98° East 478 550 24,400 -2,237 Descending New York Center
Tue 02:47:02 AM 40.1861 -76.6453 99° East 466 536 22,200 -2,132 Descending New York Center
Tue 02:48:04 AM 40.1686 -76.4917 98° East 446 513 20,100 -2,115 Descending New York Center
Tue 02:49:04 AM 40.1528 -76.3464 98° East 412 474 17,900 -2,000 Descending New York Center
Tue 02:50:04 AM 40.1344 -76.2011 99° East 407 468 16,100 -1,815 Descending New York Center
Tue 02:51:03 AM 40.1200 -76.0586 98° East 407 468 14,300 -1,800 Descending New York Center
Tue 02:52:04 AM 40.1028 -75.9297 100° East 395 455 12,500 -1,820 Descending New York Center
Tue 02:53:05 AM 40.0733 -75.7947 106° East 371 427 10,600 -1,613 Descending New York Center
Tue 02:54:03 AM 40.0331 -75.7078 121° Southeast 323 372 9,300 -1,846 Descending New York Center
Tue 02:55:02 AM 39.9872 -75.6097 121° Southeast 297 342 7,000 -2,459 Descending New York Center
Tue 02:56:05 AM 39.9372 -75.5575 141° Southeast 270 311 4,300 -2,000 Descending New York Center
Tue 02:57:02 AM 39.8722 -75.5125 152° Southeast 256 295 3,000 -706 Descending New York Center
Tue 02:58:04 AM 39.8344 -75.4692 139° Southeast 204 235 2,900 -452 Descending New York Center
Tue 02:58:35 AM 39.8333 -75.4333 92° East 195 224 2,300 -1,055 Descending Philadelphia TRACON
Tue 02:59:35 AM 39.8500 -75.3667 72° East 175 201 1,300 -842 Descending Philadelphia TRACON
Tue 03:00:29 AM 39.8500 -75.3167 90° East 146 168 700 3,480 Descending Philadelphia TRACON
Tue 03:02:05 AM 39.8647 -75.2253 78° East 171 197 10,000 3,623 Climbing New York Center
Tue 03:03:03 AM 39.8711 -75.1661 82° East 171 197 10,000  Level New York Center
Tue 03:04:02 AM 39.8797 -75.1044 80° East 171 197 10,000  Level New York Center
Tue 03:05:04 AM 39.8831 -75.0694 83° East 171 197 10,000  Level New York Center
Tue 03:08:00 AM 39.8722 -75.2409 265° West  Level Estimated
Tue 03:15:00 AM 39.8722 -75.2409 101° East  Level Estimated
Tue 03:16:00 AM 39.8722 -75.2409 101° East  Level Estimated

Login

Don't have an account? Register now (free) for customized features, flight alerts, and more!